^^
Station Historical Data
Daily Summary for October 22, 2017 Units:  English    Metric   Both
« Previous Day
Next Day »
Daily Weekly Monthly Yearly Custom
  High: Low: Average:
Temperature: 76.1 °F 49.4 °F 61.2 °F
Dew Point: 57.0 °F 43.5 °F 49.9 °F
Humidity: 96% 33% 70%
Wind Speed: 5.0mph 0.0mph 0.5mph
Wind Gust: 12.0mph - -
Wind- - SW
Pressure: 30.43 in 30.36 in -
Precipitation: 0.00 in    
Historical Graphs
 
 
Tabular Data for October 22, 2017
Time Temperature Dew Point Pressure Wind Wind Speed Wind Gust Humidity Rainfall Rate (Hourly) Conditions
00:10 56.6 °F 46.9 °F 30.36 in Calm     70% 0.00 in CLR
00:19 55.7 °F 47.2 °F 30.36 in Calm     73% 0.00 in CLR
00:30 55.5 °F 47.3 °F 30.36 in Calm     74% 0.00 in CLR
00:39 55.9 °F 47.7 °F 30.36 in Calm     74% 0.00 in CLR
00:50 55.7 °F 47.5 °F 30.36 in Calm     74% 0.00 in CLR
01:00 55.4 °F 47.6 °F 30.37 in Calm     75% 0.00 in CLR
01:10 55.1 °F 46.9 °F 30.37 in Calm     74% 0.00 in CLR
01:19 53.9 °F 46.5 °F 30.37 in Calm     76% 0.00 in CLR
01:30 53.3 °F 46.6 °F 30.36 in Calm     78% 0.00 in CLR
01:40 52.9 °F 46.6 °F 30.36 in Calm     79% 0.00 in CLR
01:50 53.1 °F 46.4 °F 30.36 in Calm     78% 0.00 in CLR
01:59 52.7 °F 46.7 °F 30.36 in Calm     80% 0.00 in CLR
02:10 53.4 °F 46.8 °F 30.36 in Calm     78% 0.00 in CLR
02:20 54.7 °F 47.3 °F 30.36 in Calm     76% 0.00 in CLR
02:30 54.8 °F 47.4 °F 30.36 in Calm     76% 0.00 in CLR
02:40 54.4 °F 47.0 °F 30.36 in Calm     76% 0.00 in CLR
02:50 54.4 °F 48.0 °F 30.36 in Calm     79% 0.00 in CLR
02:59 54.3 °F 47.6 °F 30.36 in Calm     78% 0.00 in CLR
03:10 54.2 °F 47.5 °F 30.36 in Calm     78% 0.00 in CLR
03:20 54.8 °F 48.1 °F 30.36 in Calm     78% 0.00 in CLR
03:30 54.4 °F 47.6 °F 30.36 in Calm     78% 0.00 in CLR
03:40 53.1 °F 47.4 °F 30.36 in Calm     81% 0.00 in CLR
03:50 52.3 °F 47.0 °F 30.36 in Calm     82% 0.00 in CLR
04:00 51.4 °F 46.7 °F 30.37 in Calm     84% 0.00 in CLR
04:10 50.5 °F 46.1 °F 30.37 in Calm     85% 0.00 in CLR
04:20 50.6 °F 47.2 °F 30.37 in Calm     88% 0.00 in CLR
04:29 51.0 °F 48.2 °F 30.37 in Calm     90% 0.00 in CLR
04:40 51.0 °F 48.2 °F 30.37 in Calm     90% 0.00 in CLR
04:50 50.6 °F 47.8 °F 30.37 in Calm     90% 0.00 in CLR
05:00 50.5 °F 48.3 °F 30.37 in Calm     92% 0.00 in CLR
05:10 50.5 °F 48.6 °F 30.38 in Calm     93% 0.00 in CLR
05:20 50.6 °F 48.3 °F 30.38 in Calm     92% 0.00 in CLR
05:29 50.5 °F 48.6 °F 30.39 in Calm     93% 0.00 in CLR
05:39 50.4 °F 48.4 °F 30.38 in Calm     93% 0.00 in CLR
05:50 49.5 °F 47.6 °F 30.39 in Calm     93% 0.00 in CLR
06:00 49.9 °F 48.2 °F 30.39 in Calm     94% 0.00 in CLR
06:10 50.1 °F 48.4 °F 30.39 in Calm     94% 0.00 in CLR
06:20 50.3 °F 48.9 °F 30.39 in Calm     95% 0.00 in CLR
06:29 50.3 °F 48.9 °F 30.39 in Calm     95% 0.00 in CLR
06:40 50.4 °F 49.0 °F 30.39 in Calm     95% 0.00 in CLR
06:49 50.4 °F 49.0 °F 30.39 in Calm     95% 0.00 in CLR
06:59 50.2 °F 48.8 °F 30.39 in Calm     95% 0.00 in CLR
07:10 49.8 °F 48.4 °F 30.39 in Calm     95% 0.00 in CLR
07:20 49.7 °F 48.3 °F 30.40 in Calm     95% 0.00 in CLR
07:30 49.4 °F 48.0 °F 30.40 in Calm     95% 0.00 in CLR
07:40 49.9 °F 48.8 °F 30.40 in Calm     96% 0.00 in CLR
07:49 50.2 °F 49.1 °F 30.41 in Calm     96% 0.00 in CLR
07:59 50.4 °F 49.3 °F 30.41 in Calm     96% 0.00 in CLR
08:09 51.1 °F 50.0 °F 30.42 in Calm     96% 0.00 in CLR
08:19 51.6 °F 50.5 °F 30.42 in Calm   1.0 mph 96% 0.00 in CLR
08:30 52.1 °F 51.0 °F 30.42 in Calm   2.0 mph 96% 0.00 in CLR
08:40 52.6 °F 51.2 °F 30.43 in Calm   1.0 mph 95% 0.00 in CLR
08:50 53.0 °F 51.6 °F 30.43 in Calm   2.0 mph 95% 0.00 in CLR
09:00 53.6 °F 51.9 °F 30.42 in Calm     94% 0.00 in CLR
09:10 54.1 °F 51.8 °F 30.42 in Calm     92% 0.00 in CLR
09:20 54.8 °F 52.2 °F 30.42 in Calm     91% 0.00 in CLR
09:30 55.9 °F 52.7 °F 30.42 in Calm     89% 0.00 in CLR
09:40 58.2 °F 53.1 °F 30.42 in Calm     83% 0.00 in CLR
09:49 60.8 °F 53.5 °F 30.42 in Calm     77% 0.00 in CLR
09:59 62.5 °F 52.6 °F 30.42 in Calm     70% 0.00 in CLR
10:09 63.3 °F 53.3 °F 30.42 in Calm     70% 0.00 in CLR
10:20 64.4 °F 54.0 °F 30.42 in Calm     69% 0.00 in CLR
10:30 66.7 °F 55.0 °F 30.42 in Calm     66% 0.00 in CLR
10:40 68.1 °F 54.1 °F 30.42 in Calm   1.0 mph 61% 0.00 in CLR
10:49 68.2 °F 55.6 °F 30.42 in Calm   3.0 mph 64% 0.00 in CLR
10:59 68.8 °F 56.6 °F 30.42 in WNW 1.0 mph 2.0 mph 65% 0.00 in CLR
11:10 68.3 °F 56.9 °F 30.42 in Calm   3.0 mph 67% 0.00 in CLR
11:20 69.3 °F 57.0 °F 30.41 in Calm   2.0 mph 65% 0.00 in CLR
11:30 70.9 °F 56.3 °F 30.41 in SSW 1.0 mph 3.0 mph 60% 0.00 in CLR
11:40 70.8 °F 56.7 °F 30.41 in Calm   4.0 mph 61% 0.00 in CLR
11:49 70.8 °F 56.7 °F 30.41 in West 2.0 mph 5.0 mph 61% 0.00 in CLR
11:59 71.5 °F 55.5 °F 30.41 in SW 1.0 mph 6.0 mph 57% 0.00 in CLR
12:10 71.5 °F 55.0 °F 30.41 in SW 2.0 mph 6.0 mph 56% 0.00 in CLR
12:20 72.4 °F 53.8 °F 30.41 in SSW 3.0 mph 6.0 mph 52% 0.00 in CLR
12:30 72.5 °F 52.8 °F 30.40 in WSW 3.0 mph 7.0 mph 50% 0.00 in CLR
12:39 72.8 °F 53.0 °F 30.40 in SSW 2.0 mph 6.0 mph 50% 0.00 in CLR
12:50 73.0 °F 52.7 °F 30.40 in WSW 5.0 mph 8.0 mph 49% 0.00 in CLR
13:00 73.4 °F 52.5 °F 30.40 in South 1.0 mph 7.0 mph 48% 0.00 in CLR
13:09 73.9 °F 52.4 °F 30.39 in South 2.0 mph 7.0 mph 47% 0.00 in CLR
13:20 74.7 °F 53.1 °F 30.39 in SW 2.0 mph 5.0 mph 47% 0.00 in CLR
13:30 74.6 °F 50.6 °F 30.38 in Calm   5.0 mph 43% 0.00 in CLR
13:40 75.0 °F 51.0 °F 30.38 in SW 2.0 mph 5.0 mph 43% 0.00 in CLR
13:49 74.9 °F 50.2 °F 30.38 in SW 3.0 mph 6.0 mph 42% 0.00 in CLR
13:59 74.7 °F 50.7 °F 30.37 in Calm   7.0 mph 43% 0.00 in CLR
14:09 75.6 °F 50.9 °F 30.37 in SW 2.0 mph 9.0 mph 42% 0.00 in CLR
14:19 75.5 °F 48.1 °F 30.37 in SW 3.0 mph 7.0 mph 38% 0.00 in CLR
14:29 76.1 °F 47.2 °F 30.37 in WSW 3.0 mph 9.0 mph 36% 0.00 in CLR
14:39 75.9 °F 46.3 °F 30.36 in Calm   10.0 mph 35% 0.00 in CLR
14:50 75.7 °F 44.5 °F 30.36 in SW 5.0 mph 12.0 mph 33% 0.00 in CLR
15:00 75.2 °F 45.6 °F 30.36 in SW 1.0 mph 9.0 mph 35% 0.00 in CLR
15:20 74.6 °F 46.6 °F 30.37 in SW 2.0 mph 9.0 mph 37% 0.00 in CLR
15:30 74.6 °F 45.9 °F 30.37 in South 2.0 mph 9.0 mph 36% 0.00 in CLR
15:40 74.4 °F 45.7 °F 30.37 in South 1.0 mph 8.0 mph 36% 0.00 in CLR
15:49 74.3 °F 46.4 °F 30.36 in SSW 1.0 mph 6.0 mph 37% 0.00 in CLR
16:00 74.4 °F 45.7 °F 30.37 in SSW 1.0 mph 7.0 mph 36% 0.00 in CLR
16:09 73.9 °F 45.3 °F 30.37 in SSW 2.0 mph 8.0 mph 36% 0.00 in CLR
16:20 72.7 °F 44.9 °F 30.36 in Calm   6.0 mph 37% 0.00 in CLR
16:30 71.9 °F 43.5 °F 30.37 in SW 2.0 mph 6.0 mph 36% 0.00 in CLR
16:40 72.0 °F 44.3 °F 30.36 in Calm   8.0 mph 37% 0.00 in CLR
16:49 72.8 °F 45.7 °F 30.36 in Calm   4.0 mph 38% 0.00 in CLR
16:59 73.1 °F 45.3 °F 30.36 in SW 2.0 mph 4.0 mph 37% 0.00 in CLR
17:10 72.5 °F 45.5 °F 30.36 in South 1.0 mph 5.0 mph 38% 0.00 in CLR
17:20 71.8 °F 46.2 °F 30.36 in SSW 2.0 mph 6.0 mph 40% 0.00 in CLR
17:30 71.3 °F 45.7 °F 30.36 in SW 1.0 mph 3.0 mph 40% 0.00 in CLR
17:40 70.5 °F 46.3 °F 30.36 in WSW 1.0 mph 5.0 mph 42% 0.00 in CLR
17:49 69.2 °F 45.7 °F 30.37 in Calm   4.0 mph 43% 0.00 in CLR
17:59 68.2 °F 46.0 °F 30.37 in Calm   4.0 mph 45% 0.00 in CLR
18:10 67.0 °F 46.1 °F 30.36 in Calm   1.0 mph 47% 0.00 in CLR
18:20 65.9 °F 46.2 °F 30.36 in Calm   2.0 mph 49% 0.00 in CLR
18:30 65.2 °F 46.6 °F 30.37 in SW 1.0 mph 4.0 mph 51% 0.00 in CLR
18:39 64.7 °F 47.1 °F 30.36 in Calm   2.0 mph 53% 0.00 in CLR
18:50 64.3 °F 47.8 °F 30.37 in SSW 1.0 mph 6.0 mph 55% 0.00 in CLR
19:00 64.1 °F 48.1 °F 30.36 in Calm   2.0 mph 56% 0.00 in CLR
19:10 63.7 °F 48.6 °F 30.36 in Calm   2.0 mph 58% 0.00 in CLR
19:19 63.3 °F 49.2 °F 30.37 in Calm   2.0 mph 60% 0.00 in CLR
19:29 62.9 °F 49.7 °F 30.37 in Calm   2.0 mph 62% 0.00 in CLR
19:40 62.2 °F 50.3 °F 30.37 in Calm   1.0 mph 65% 0.00 in CLR
19:50 61.6 °F 50.5 °F 30.37 in Calm     67% 0.00 in CLR
19:59 61.2 °F 51.3 °F 30.38 in Calm   1.0 mph 70% 0.00 in CLR
20:10 60.9 °F 51.4 °F 30.38 in Calm   2.0 mph 71% 0.00 in CLR
20:19 60.6 °F 51.5 °F 30.38 in Calm   2.0 mph 72% 0.00 in CLR
20:30 60.3 °F 52.0 °F 30.38 in Calm   1.0 mph 74% 0.00 in CLR
20:40 59.9 °F 52.3 °F 30.38 in Calm   1.0 mph 76% 0.00 in CLR
20:50 59.7 °F 52.5 °F 30.38 in Calm   1.0 mph 77% 0.00 in CLR
20:59 59.5 °F 52.6 °F 30.38 in Calm   1.0 mph 78% 0.00 in CLR
21:09 59.5 °F 53.0 °F 30.38 in Calm   1.0 mph 79% 0.00 in CLR
21:19 59.5 °F 53.3 °F 30.38 in Calm   2.0 mph 80% 0.00 in CLR
21:29 59.7 °F 53.5 °F 30.38 in Calm   2.0 mph 80% 0.00 in CLR
21:39 59.7 °F 53.8 °F 30.38 in Calm   2.0 mph 81% 0.00 in CLR
21:50 59.5 °F 54.0 °F 30.39 in Calm   2.0 mph 82% 0.00 in CLR
21:59 59.4 °F 54.2 °F 30.39 in Calm   3.0 mph 83% 0.00 in CLR
22:09 59.4 °F 54.2 °F 30.39 in Calm   3.0 mph 83% 0.00 in CLR
22:19 59.3 °F 54.5 °F 30.39 in Calm   1.0 mph 84% 0.00 in CLR
22:29 59.1 °F 54.3 °F 30.39 in Calm   1.0 mph 84% 0.00 in CLR
22:40 58.9 °F 54.4 °F 30.39 in Calm   1.0 mph 85% 0.00 in CLR
22:50 58.8 °F 54.6 °F 30.39 in Calm   1.0 mph 86% 0.00 in CLR
23:00 58.5 °F 54.7 °F 30.39 in Calm   1.0 mph 87% 0.00 in CLR
23:10 58.3 °F 54.5 °F 30.39 in Calm   1.0 mph 87% 0.00 in CLR
23:20 58.1 °F 54.6 °F 30.39 in Calm   1.0 mph 88% 0.00 in CLR
23:29 57.8 °F 54.3 °F 30.39 in Calm   1.0 mph 88% 0.00 in CLR
23:40 57.9 °F 55.0 °F 30.38 in Calm   2.0 mph 90% 0.00 in CLR
23:50 57.9 °F 55.0 °F 30.38 in Calm   1.0 mph 90% 0.00 in CLR
TarryTown NY Weather
Compliments of Weather Underground - 1.75 mb